createdAt,value
2022-10-18T00:02:14.062Z,12.60
2022-10-18T00:04:41.128Z,14.02
2022-10-18T00:07:07.927Z,13.38
2022-10-18T00:09:35.642Z,12.63
2022-10-18T00:12:02.538Z,12.65
2022-10-18T00:14:29.646Z,12.32
2022-10-18T00:16:56.434Z,12.40
2022-10-18T00:19:25.974Z,13.15
2022-10-18T00:21:55.362Z,12.02
2022-10-18T00:24:22.382Z,12.52
2022-10-18T00:26:49.155Z,12.13
2022-10-18T00:29:16.243Z,12.40
2022-10-18T00:31:43.186Z,12.13
2022-10-18T00:34:13.234Z,10.90
2022-10-18T00:36:40.045Z,12.02
2022-10-18T00:39:07.507Z,11.00
2022-10-18T00:41:35.282Z,11.30
2022-10-18T00:44:03.579Z,10.63
2022-10-18T00:46:32.110Z,10.35
2022-10-18T00:49:00.652Z,11.52
2022-10-18T00:51:31.125Z,11.25
2022-10-18T00:53:58.127Z,10.80
2022-10-18T00:56:25.191Z,10.52
2022-10-18T00:58:52.251Z,9.70
2022-10-18T01:01:19.047Z,9.95
2022-10-18T01:03:46.188Z,8.60
2022-10-18T01:06:13.142Z,8.30
2022-10-18T01:08:48.967Z,9.05
2022-10-18T01:11:39.026Z,9.10
2022-10-18T01:14:27.314Z,8.38
2022-10-18T01:17:00.665Z,7.93
2022-10-18T01:19:49.456Z,7.15
2022-10-18T01:22:36.813Z,7.95
2022-10-18T01:25:07.007Z,7.82
2022-10-18T01:27:53.556Z,7.18
2022-10-18T01:30:41.813Z,6.90
2022-10-18T01:33:46.284Z,6.55
2022-10-18T01:36:26.287Z,6.07
2022-10-18T01:38:54.632Z,6.63
2022-10-18T01:41:22.729Z,7.43
2022-10-18T01:43:51.127Z,7.15
2022-10-18T01:46:19.754Z,6.32
2022-10-18T01:48:46.519Z,6.45
2022-10-18T01:51:13.483Z,5.85
2022-10-18T01:53:40.283Z,6.45
2022-10-18T01:56:18.484Z,6.53
2022-10-18T01:59:22.152Z,5.95
2022-10-18T02:02:02.552Z,6.60
2022-10-18T02:04:49.016Z,6.10
2022-10-18T02:07:55.309Z,6.55
2022-10-18T02:10:41.720Z,7.05
2022-10-18T02:13:10.488Z,6.80
2022-10-18T02:15:41.475Z,7.40
2022-10-18T02:18:11.511Z,7.38
2022-10-18T02:20:38.600Z,6.15
2022-10-18T02:23:09.264Z,6.30
2022-10-18T02:25:36.363Z,6.68
2022-10-18T02:28:03.907Z,6.40
2022-10-18T02:30:37.427Z,6.78
2022-10-18T02:33:09.027Z,7.93
2022-10-18T02:35:37.726Z,7.15
2022-10-18T02:38:04.730Z,7.30
2022-10-18T02:40:31.533Z,7.50
2022-10-18T02:42:58.756Z,7.28
2022-10-18T02:45:25.919Z,8.15
2022-10-18T02:47:53.029Z,7.47
2022-10-18T02:50:19.798Z,7.13
2022-10-18T02:52:46.834Z,6.93
2022-10-18T02:55:13.623Z,6.78
2022-10-18T02:57:40.686Z,7.30
2022-10-18T03:00:08.182Z,6.68
2022-10-18T03:02:35.187Z,6.65
2022-10-18T03:05:02.101Z,6.20
2022-10-18T03:07:29.201Z,5.80
2022-10-18T03:09:56.105Z,5.57
2022-10-18T03:12:23.101Z,5.40
2022-10-18T03:14:49.867Z,8.85
2022-10-18T03:17:16.913Z,9.57
2022-10-18T03:19:43.733Z,10.13
2022-10-18T03:22:10.707Z,9.55
2022-10-18T03:24:37.433Z,9.48
2022-10-18T03:27:04.549Z,8.70
2022-10-18T03:29:31.312Z,8.77
2022-10-18T03:31:58.341Z,9.13
2022-10-18T03:34:25.118Z,8.48
2022-10-18T03:36:52.095Z,7.80
2022-10-18T03:39:18.899Z,7.55
2022-10-18T03:41:45.953Z,7.30
2022-10-18T03:44:12.723Z,6.82
2022-10-18T03:46:39.703Z,6.05
2022-10-18T03:49:06.470Z,6.07
2022-10-18T03:51:33.477Z,6.40
2022-10-18T03:54:00.250Z,6.03
2022-10-18T03:56:27.313Z,6.57
2022-10-18T03:58:54.083Z,6.13
2022-10-18T04:01:21.202Z,5.88
2022-10-18T04:03:48.030Z,6.05
2022-10-18T04:06:15.048Z,5.85
2022-10-18T04:08:41.842Z,5.57
2022-10-18T04:11:09.861Z,6.13
2022-10-18T04:13:36.852Z,5.95
2022-10-18T04:16:03.912Z,6.35
2022-10-18T04:18:30.694Z,5.45
2022-10-18T04:20:57.656Z,5.13
2022-10-18T04:23:24.445Z,5.40
2022-10-18T04:25:51.656Z,5.13
2022-10-18T04:28:18.771Z,5.55
2022-10-18T04:30:50.513Z,5.85
2022-10-18T04:33:17.972Z,5.25
2022-10-18T04:35:45.192Z,5.30
2022-10-18T04:38:11.970Z,5.07
2022-10-18T04:40:38.969Z,4.55
2022-10-18T04:43:05.788Z,5.13
2022-10-18T04:45:32.804Z,4.65
2022-10-18T04:47:59.528Z,5.80
2022-10-18T04:50:26.681Z,4.50
2022-10-18T04:52:53.781Z,5.20
2022-10-18T04:55:20.793Z,4.95
2022-10-18T04:57:47.563Z,5.22
2022-10-18T05:00:14.976Z,5.22
2022-10-18T05:02:41.752Z,5.65
2022-10-18T05:05:11.654Z,4.68
2022-10-18T05:07:40.772Z,4.72
2022-10-18T05:10:09.008Z,4.45
2022-10-18T05:12:35.880Z,4.13
2022-10-18T05:15:03.165Z,5.28
2022-10-18T05:17:29.944Z,4.80
2022-10-18T05:19:56.971Z,4.82
2022-10-18T05:22:23.743Z,4.40
2022-10-18T05:24:50.846Z,4.13
2022-10-18T05:27:17.619Z,4.68
2022-10-18T05:29:44.788Z,4.32
2022-10-18T05:32:11.588Z,4.35
2022-10-18T05:34:38.596Z,4.18
2022-10-18T05:37:05.697Z,4.70
2022-10-18T05:39:32.713Z,4.90
2022-10-18T05:41:59.961Z,4.80
2022-10-18T05:44:27.106Z,4.55
2022-10-18T05:46:53.884Z,4.80
2022-10-18T05:49:20.985Z,4.43
2022-10-18T05:51:47.845Z,4.28
2022-10-18T05:54:14.980Z,4.50
2022-10-18T05:56:41.794Z,4.70
2022-10-18T05:59:12.202Z,4.60
2022-10-18T06:01:39.836Z,4.90
2022-10-18T06:04:06.852Z,4.43
2022-10-18T06:06:33.735Z,4.07
2022-10-18T06:09:00.735Z,4.53
2022-10-18T06:11:27.542Z,4.38
2022-10-18T06:13:54.616Z,4.43
2022-10-18T06:16:22.635Z,4.60
2022-10-18T06:18:56.684Z,4.45
2022-10-18T06:21:24.031Z,4.43
2022-10-18T06:23:58.047Z,4.90
2022-10-18T06:26:25.309Z,4.13
2022-10-18T06:28:52.636Z,4.85
2022-10-18T06:31:20.615Z,4.95
2022-10-18T06:33:47.698Z,3.90
2022-10-18T06:36:16.026Z,4.78
2022-10-18T06:38:43.119Z,4.53
2022-10-18T06:41:10.107Z,5.57
2022-10-18T06:43:37.152Z,5.22
2022-10-18T06:46:05.608Z,6.60
2022-10-18T06:48:32.751Z,6.85
2022-10-18T06:51:00.602Z,6.40
2022-10-18T06:53:29.114Z,6.13
2022-10-18T06:56:00.715Z,5.78
2022-10-18T06:58:28.410Z,6.28
2022-10-18T07:00:55.181Z,6.13
2022-10-18T07:03:22.396Z,6.05
2022-10-18T07:05:50.091Z,6.50
2022-10-18T07:08:17.191Z,6.68
2022-10-18T07:10:51.651Z,6.57
2022-10-18T07:13:34.221Z,6.88
2022-10-18T07:16:10.641Z,7.25
2022-10-18T07:18:41.443Z,7.43
2022-10-18T07:21:10.291Z,8.07
2022-10-18T07:23:38.770Z,7.43
2022-10-18T07:26:34.948Z,7.75
2022-10-18T07:29:05.929Z,7.43
2022-10-18T07:31:33.411Z,7.53
2022-10-18T07:34:00.648Z,6.53
2022-10-18T07:36:27.483Z,7.47
2022-10-18T07:38:54.503Z,6.70
2022-10-18T07:41:21.767Z,6.60
2022-10-18T07:43:50.982Z,6.72
2022-10-18T07:46:18.371Z,6.80
2022-10-18T07:48:45.451Z,6.70
2022-10-18T07:51:12.294Z,6.78
2022-10-18T07:53:39.364Z,7.82
2022-10-18T07:56:09.578Z,7.25
2022-10-18T07:58:36.892Z,6.95
2022-10-18T08:01:04.519Z,6.53
2022-10-18T08:03:31.596Z,6.75
2022-10-18T08:05:58.451Z,7.68
2022-10-18T08:08:25.740Z,7.50
2022-10-18T08:10:52.759Z,8.52
2022-10-18T08:13:19.778Z,7.40
2022-10-18T08:15:46.614Z,7.65
2022-10-18T08:18:13.726Z,6.95
2022-10-18T08:20:44.588Z,6.82
2022-10-18T08:23:11.731Z,6.43
2022-10-18T08:25:38.679Z,6.47
2022-10-18T08:28:06.702Z,7.15
2022-10-18T08:30:34.765Z,7.00
2022-10-18T08:33:02.487Z,7.03
2022-10-18T08:35:29.405Z,5.95
2022-10-18T08:37:56.457Z,6.72
2022-10-18T08:40:23.281Z,6.57
2022-10-18T08:43:25.926Z,5.93
2022-10-18T08:45:53.345Z,7.43
2022-10-18T08:48:32.462Z,6.95
2022-10-18T08:50:59.222Z,6.88
2022-10-18T08:53:40.620Z,6.57
2022-10-18T08:56:14.603Z,6.57
2022-10-18T08:58:44.995Z,6.67
2022-10-18T09:01:35.461Z,5.72
2022-10-18T09:04:27.490Z,6.75
2022-10-18T09:07:04.755Z,6.00
2022-10-18T09:09:59.342Z,5.95
2022-10-18T09:12:51.939Z,6.13
2022-10-18T09:15:31.170Z,5.28
2022-10-18T09:18:29.141Z,5.25
2022-10-18T09:21:26.063Z,6.05
2022-10-18T09:23:55.908Z,5.80
2022-10-18T09:26:23.767Z,12.63
2022-10-18T09:29:03.733Z,12.25
2022-10-18T09:31:49.540Z,10.20
2022-10-18T09:34:31.903Z,9.45
2022-10-18T09:36:58.959Z,8.27
2022-10-18T09:39:28.815Z,8.73
2022-10-18T09:42:26.990Z,7.63
2022-10-18T09:45:15.416Z,7.25
2022-10-18T09:48:03.224Z,6.53
2022-10-18T09:50:35.431Z,5.90
2022-10-18T09:53:12.402Z,6.90
2022-10-18T09:55:47.532Z,6.70
2022-10-18T10:00:51.536Z,10.60
2022-10-18T10:03:18.510Z,10.18
2022-10-18T10:05:45.612Z,9.23
2022-10-18T10:08:12.606Z,9.07
2022-10-18T10:10:39.973Z,8.43
2022-10-18T10:13:07.880Z,8.88
2022-10-18T10:15:38.186Z,7.97
2022-10-18T10:18:17.864Z,9.32
2022-10-18T10:20:50.599Z,9.55
2022-10-18T10:23:32.119Z,9.10
2022-10-18T10:26:03.918Z,8.20
2022-10-18T10:28:36.168Z,8.43
2022-10-18T10:31:24.980Z,7.95
2022-10-18T10:34:25.419Z,6.93
2022-10-18T10:36:53.638Z,7.63
2022-10-18T10:39:21.983Z,8.13
2022-10-18T10:41:56.426Z,7.45
2022-10-18T10:44:25.162Z,8.00
2022-10-18T10:46:51.978Z,7.38
2022-10-18T10:49:39.704Z,6.93
2022-10-18T10:52:09.398Z,6.70
2022-10-18T10:54:55.738Z,7.85
2022-10-18T10:57:28.258Z,7.03
2022-10-18T10:59:57.107Z,7.47
2022-10-18T11:02:35.992Z,7.38
2022-10-18T11:05:22.584Z,7.05
2022-10-18T11:07:49.420Z,7.20
2022-10-18T11:10:20.137Z,7.63
2022-10-18T11:13:11.524Z,6.35
2022-10-18T11:15:40.268Z,6.43
2022-10-18T11:18:35.383Z,6.22
2022-10-18T11:21:08.256Z,6.88
2022-10-18T11:23:36.851Z,6.72
2022-10-18T11:26:13.059Z,7.07
2022-10-18T11:28:52.144Z,7.63
2022-10-18T11:31:28.102Z,6.95
2022-10-18T11:34:21.295Z,7.40
2022-10-18T11:37:15.933Z,6.80
2022-10-18T11:39:56.860Z,7.03
2022-10-18T11:43:01.680Z,6.95
2022-10-18T11:45:38.270Z,6.53
2022-10-18T11:48:16.839Z,6.35
2022-10-18T11:50:49.754Z,5.97
2022-10-18T11:53:41.907Z,6.45
2022-10-18T11:56:17.892Z,6.32
2022-10-18T11:59:08.848Z,6.43
2022-10-18T12:02:03.451Z,5.90
2022-10-18T12:04:34.930Z,6.07
2022-10-18T12:07:02.020Z,5.95
2022-10-18T12:09:36.564Z,5.85
2022-10-18T12:12:09.425Z,5.57
2022-10-18T12:14:57.740Z,5.93
2022-10-18T12:17:43.128Z,5.57
2022-10-18T12:20:19.462Z,5.82
2022-10-18T12:22:50.166Z,5.32
2022-10-18T12:25:17.694Z,6.30
2022-10-18T12:27:49.013Z,6.00
2022-10-18T12:30:35.190Z,6.18
2022-10-18T12:33:28.589Z,6.63
2022-10-18T12:36:25.414Z,6.70
2022-10-18T12:39:00.373Z,7.57
2022-10-18T12:44:06.386Z,11.52
2022-10-18T12:46:51.021Z,12.82
2022-10-18T12:49:42.611Z,12.95
2022-10-18T12:52:30.663Z,15.45
2022-10-18T12:55:28.942Z,16.13
2022-10-18T12:57:59.135Z,16.75
2022-10-18T13:00:32.201Z,18.67
2022-10-18T13:03:17.883Z,19.33
2022-10-18T13:08:37.955Z,20.95
2022-10-18T13:11:10.530Z,23.08
2022-10-18T13:14:15.262Z,22.00
2022-10-18T13:16:49.029Z,21.73
2022-10-18T13:20:07.656Z,19.05
2022-10-18T13:23:00.060Z,16.08
2022-10-18T13:25:34.148Z,17.83
2022-10-18T13:28:19.096Z,17.02
2022-10-18T13:31:23.343Z,15.80
2022-10-18T13:33:50.389Z,13.70
2022-10-18T13:36:22.522Z,14.25
2022-10-18T13:38:50.476Z,12.98
2022-10-18T13:43:52.974Z,9.80
2022-10-18T13:46:20.689Z,9.55
2022-10-18T13:48:51.887Z,9.52
2022-10-18T13:51:18.889Z,9.43
2022-10-18T13:54:07.347Z,9.65
2022-10-18T13:56:40.408Z,8.90
2022-10-18T13:59:25.365Z,10.73
2022-10-18T14:02:13.887Z,14.80
2022-10-18T14:05:16.878Z,17.35
2022-10-18T14:07:50.529Z,19.05
2022-10-18T14:10:29.777Z,19.30
2022-10-18T14:13:04.992Z,19.08
2022-10-18T14:15:34.422Z,20.48
2022-10-18T14:18:31.881Z,24.00
2022-10-18T14:21:13.446Z,23.60
2022-10-18T14:23:44.473Z,22.95
2022-10-18T14:26:16.265Z,21.55
2022-10-18T14:29:00.200Z,21.38
2022-10-18T14:31:27.693Z,19.27
2022-10-18T14:33:57.943Z,19.60
2022-10-18T14:36:27.322Z,18.83
2022-10-18T14:38:58.059Z,17.85
2022-10-18T14:41:28.436Z,17.10
2022-10-18T14:44:14.168Z,17.13
2022-10-18T14:49:11.977Z,14.20
2022-10-18T14:51:39.309Z,14.73
2022-10-18T14:54:32.977Z,13.40
2022-10-18T14:57:00.722Z,13.25
2022-10-18T14:59:29.750Z,12.10
2022-10-18T15:02:07.024Z,12.43
2022-10-18T15:04:34.107Z,12.02
2022-10-18T15:07:03.102Z,11.77
2022-10-18T15:09:30.298Z,11.70
2022-10-18T15:11:57.985Z,11.05
2022-10-18T15:14:27.309Z,11.07
2022-10-18T15:16:58.622Z,10.55
2022-10-18T15:19:30.063Z,9.88
2022-10-18T15:22:31.269Z,10.52
2022-10-18T15:25:06.640Z,9.35
2022-10-18T15:27:36.165Z,9.07
2022-10-18T15:30:15.382Z,9.63
2022-10-18T15:33:01.046Z,9.35
2022-10-18T15:35:29.876Z,9.43
2022-10-18T15:37:58.386Z,8.55
2022-10-18T15:40:28.532Z,8.88
2022-10-18T15:43:00.888Z,8.50
2022-10-18T15:45:36.238Z,8.88
2022-10-18T15:50:51.257Z,8.65
2022-10-18T15:53:21.078Z,8.82
2022-10-18T15:55:52.378Z,9.63
2022-10-18T15:58:26.587Z,9.77
2022-10-18T16:00:57.695Z,10.63
2022-10-18T16:03:24.592Z,11.15
2022-10-18T16:05:54.433Z,10.00
2022-10-18T16:08:23.532Z,9.65
2022-10-18T16:10:51.122Z,11.50
2022-10-18T16:13:18.765Z,10.20
2022-10-18T16:15:45.881Z,11.60
2022-10-18T16:18:18.314Z,12.05
2022-10-18T16:20:46.175Z,11.40
2022-10-18T16:23:21.139Z,11.25
2022-10-18T16:28:16.566Z,12.27
2022-10-18T16:30:45.620Z,13.00
2022-10-18T16:33:12.372Z,13.18
2022-10-18T16:35:39.396Z,12.63
2022-10-18T16:38:06.204Z,12.68
2022-10-18T16:40:34.646Z,12.25
2022-10-18T16:43:03.280Z,13.25
2022-10-18T16:45:30.262Z,13.77
2022-10-18T16:47:57.032Z,13.07
2022-10-18T16:50:24.134Z,14.20
2022-10-18T16:52:50.887Z,14.57
2022-10-18T16:55:24.849Z,16.77
2022-10-18T16:57:51.891Z,17.05
2022-10-18T17:00:20.925Z,18.75
2022-10-18T17:02:48.461Z,19.65
2022-10-18T17:05:16.663Z,21.58
2022-10-18T17:07:43.560Z,22.15
2022-10-18T17:10:14.857Z,21.83
2022-10-18T17:12:41.691Z,22.05
2022-10-18T17:15:09.153Z,22.05
2022-10-18T17:17:36.229Z,20.90
2022-10-18T17:20:04.107Z,20.80
2022-10-18T17:22:30.939Z,20.13
2022-10-18T17:24:57.966Z,19.33
2022-10-18T17:27:24.803Z,17.88
2022-10-18T17:29:51.798Z,17.42
2022-10-18T17:32:18.543Z,17.38
2022-10-18T17:34:45.584Z,16.30
2022-10-18T17:37:13.628Z,17.73
2022-10-18T17:39:40.675Z,17.75
2022-10-18T17:42:07.623Z,16.75
2022-10-18T17:44:34.626Z,18.02
2022-10-18T17:47:01.491Z,15.65
2022-10-18T17:49:28.623Z,17.08
2022-10-18T17:51:55.438Z,16.45
2022-10-18T17:54:22.478Z,16.83
2022-10-18T17:56:52.356Z,15.52
2022-10-18T17:59:21.742Z,16.48
2022-10-18T18:01:48.540Z,16.38
2022-10-18T18:04:17.026Z,15.80
2022-10-18T18:06:45.414Z,15.10
2022-10-18T18:09:13.586Z,15.35
2022-10-18T18:11:41.197Z,15.93
2022-10-18T18:14:09.650Z,15.50
2022-10-18T18:16:37.710Z,14.10
2022-10-18T18:19:09.528Z,13.68
2022-10-18T18:21:36.898Z,13.45
2022-10-18T18:24:04.410Z,13.10
2022-10-18T18:26:32.577Z,13.25
2022-10-18T18:28:59.906Z,12.10
2022-10-18T18:31:28.414Z,12.10
2022-10-18T18:33:57.969Z,11.60
2022-10-18T18:36:25.987Z,11.40
2022-10-18T18:38:56.861Z,11.52
2022-10-18T18:41:25.299Z,10.73
2022-10-18T18:43:57.133Z,12.32
2022-10-18T18:46:24.810Z,10.75
2022-10-18T18:48:51.841Z,11.23
2022-10-18T18:51:19.562Z,10.43
2022-10-18T18:53:46.813Z,10.40
2022-10-18T18:56:15.470Z,10.38
2022-10-18T18:58:44.024Z,10.48
2022-10-18T19:01:14.800Z,10.07
2022-10-18T19:03:42.893Z,9.45
2022-10-18T19:06:15.819Z,9.23
2022-10-18T19:08:44.848Z,8.90
2022-10-18T19:11:19.533Z,8.45
2022-10-18T19:13:47.037Z,8.95
2022-10-18T19:16:28.165Z,8.52
2022-10-18T19:18:56.250Z,8.48
2022-10-18T19:21:23.764Z,7.32
2022-10-18T19:23:50.844Z,6.25
2022-10-18T19:26:29.604Z,7.13
2022-10-18T19:29:00.875Z,5.75
2022-10-18T19:31:27.693Z,5.75
2022-10-18T19:33:59.750Z,6.25
2022-10-18T19:36:27.914Z,6.03
2022-10-18T19:38:54.916Z,5.80
2022-10-18T19:41:21.823Z,5.63
2022-10-18T19:43:48.831Z,6.00
2022-10-18T19:46:15.640Z,5.95
2022-10-18T19:48:42.663Z,6.03
2022-10-18T19:51:15.988Z,5.85
2022-10-18T19:53:46.594Z,5.50
2022-10-18T19:56:20.879Z,5.93
2022-10-18T19:58:47.925Z,5.30
2022-10-18T20:01:14.866Z,5.07
2022-10-18T20:03:42.024Z,5.47
2022-10-18T20:06:09.016Z,4.47
2022-10-18T20:08:36.805Z,4.90
2022-10-18T20:11:08.426Z,4.38
2022-10-18T20:13:35.620Z,3.90
2022-10-18T20:16:02.736Z,3.53
2022-10-18T20:18:29.756Z,3.97
2022-10-18T20:20:56.532Z,3.53
2022-10-18T20:23:23.785Z,3.47
2022-10-18T20:25:57.293Z,3.15
2022-10-18T20:28:25.133Z,3.03
2022-10-18T20:31:05.476Z,3.30
2022-10-18T20:33:32.745Z,2.95
2022-10-18T20:36:03.642Z,3.15
2022-10-18T20:38:34.365Z,3.22
2022-10-18T20:41:08.673Z,3.03
2022-10-18T20:43:35.736Z,2.75
2022-10-18T20:46:02.540Z,3.30
2022-10-18T20:48:30.016Z,2.85
2022-10-18T20:50:56.813Z,2.90
2022-10-18T20:53:23.928Z,2.50
2022-10-18T20:55:50.734Z,2.95
2022-10-18T20:58:17.758Z,2.38
2022-10-18T21:00:44.537Z,2.85
2022-10-18T21:05:39.300Z,2.75
2022-10-18T21:08:06.281Z,2.53
2022-10-18T21:10:33.066Z,3.17
2022-10-18T21:13:00.160Z,2.88
2022-10-18T21:15:26.961Z,2.83
2022-10-18T21:17:53.992Z,2.58
2022-10-18T21:20:20.748Z,2.78
2022-10-18T21:22:48.280Z,2.22
2022-10-18T21:25:15.070Z,2.38
2022-10-18T21:27:42.064Z,2.38
2022-10-18T21:30:09.537Z,2.80
2022-10-18T21:32:36.724Z,2.92
2022-10-18T21:35:03.735Z,2.72
2022-10-18T21:37:30.708Z,2.63
2022-10-18T21:39:57.465Z,2.60
2022-10-18T21:42:24.465Z,2.45
2022-10-18T21:44:51.229Z,2.78
2022-10-18T21:47:18.234Z,2.63
2022-10-18T21:49:45.012Z,2.60
2022-10-18T21:52:12.071Z,2.75
2022-10-18T21:54:38.879Z,2.90
2022-10-18T21:57:05.853Z,2.30
2022-10-18T21:59:32.638Z,2.30
2022-10-18T22:02:01.270Z,2.40
2022-10-18T22:04:28.122Z,2.42
2022-10-18T22:06:55.137Z,2.63
2022-10-18T22:09:22.167Z,2.70
2022-10-18T22:11:51.137Z,3.05
2022-10-18T22:14:17.980Z,2.80
2022-10-18T22:16:45.017Z,2.90
2022-10-18T22:19:11.793Z,2.88
2022-10-18T22:21:38.856Z,2.83
2022-10-18T22:24:07.073Z,2.47
2022-10-18T22:26:36.099Z,2.72
2022-10-18T22:29:05.565Z,2.80
2022-10-18T22:31:34.114Z,2.50
2022-10-18T22:34:08.954Z,2.97
2022-10-18T22:36:36.189Z,2.70
2022-10-18T22:39:03.639Z,3.03
2022-10-18T22:41:30.644Z,2.90
2022-10-18T22:43:59.766Z,3.15
2022-10-18T22:46:29.757Z,3.97
2022-10-18T22:48:56.517Z,3.25
2022-10-18T22:51:23.624Z,3.05
2022-10-18T22:53:50.412Z,4.07
2022-10-18T22:56:18.824Z,3.50
2022-10-18T22:58:45.814Z,3.85
2022-10-18T23:01:15.413Z,3.78
2022-10-18T23:03:42.258Z,3.50
2022-10-18T23:06:26.180Z,4.30
2022-10-18T23:08:53.699Z,4.35
2022-10-18T23:11:20.761Z,3.35
2022-10-18T23:13:47.539Z,3.65
2022-10-18T23:16:14.829Z,3.92
2022-10-18T23:18:41.834Z,3.65
2022-10-18T23:21:10.684Z,4.07
2022-10-18T23:23:38.695Z,4.05
2022-10-18T23:26:10.225Z,3.85
2022-10-18T23:28:37.788Z,4.13
2022-10-18T23:31:09.476Z,3.45
2022-10-18T23:33:36.377Z,3.60
2022-10-18T23:36:04.420Z,3.95
2022-10-18T23:38:31.424Z,3.65
2022-10-18T23:40:58.458Z,3.95
2022-10-18T23:43:25.285Z,3.63
2022-10-18T23:45:52.294Z,3.28
2022-10-18T23:48:19.068Z,3.65
2022-10-18T23:50:46.124Z,3.72
2022-10-18T23:53:12.885Z,3.60
2022-10-18T23:55:39.912Z,3.60
2022-10-18T23:58:06.665Z,3.20
